sensor_id;sensor_type;location;lat;lon;timestamp;temperature;humidity
52963;DHT22;38827;53.024;6.596;2022-08-21T00:02:20;16.50;67.60
52963;DHT22;38827;53.024;6.596;2022-08-21T00:04:47;16.50;67.80
52963;DHT22;38827;53.024;6.596;2022-08-21T00:07:14;16.50;67.90
52963;DHT22;38827;53.024;6.596;2022-08-21T00:09:42;16.40;68.00
52963;DHT22;38827;53.024;6.596;2022-08-21T00:12:09;16.40;68.20
52963;DHT22;38827;53.024;6.596;2022-08-21T00:14:35;16.40;68.30
52963;DHT22;38827;53.024;6.596;2022-08-21T00:17:04;16.30;68.40
52963;DHT22;38827;53.024;6.596;2022-08-21T00:19:31;16.30;68.60
52963;DHT22;38827;53.024;6.596;2022-08-21T00:21:57;16.30;68.70
52963;DHT22;38827;53.024;6.596;2022-08-21T00:24:24;16.30;68.90
52963;DHT22;38827;53.024;6.596;2022-08-21T00:26:50;16.20;69.00
52963;DHT22;38827;53.024;6.596;2022-08-21T00:29:17;16.20;69.00
52963;DHT22;38827;53.024;6.596;2022-08-21T00:31:43;16.20;69.30
52963;DHT22;38827;53.024;6.596;2022-08-21T00:34:10;16.20;69.40
52963;DHT22;38827;53.024;6.596;2022-08-21T00:37:01;16.20;69.40
52963;DHT22;38827;53.024;6.596;2022-08-21T00:45:24;16.10;69.80
52963;DHT22;38827;53.024;6.596;2022-08-21T01:07:27;15.80;71.10
52963;DHT22;38827;53.024;6.596;2022-08-21T01:10:09;15.70;71.30
52963;DHT22;38827;53.024;6.596;2022-08-21T01:37:20;15.30;72.40
52963;DHT22;38827;53.024;6.596;2022-08-21T01:40:42;15.30;72.60
52963;DHT22;38827;53.024;6.596;2022-08-21T01:54:03;15.20;73.50
52963;DHT22;38827;53.024;6.596;2022-08-21T01:57:03;15.10;73.60
52963;DHT22;38827;53.024;6.596;2022-08-21T02:11:34;15.00;74.40
52963;DHT22;38827;53.024;6.596;2022-08-21T02:15:13;14.90;74.80
52963;DHT22;38827;53.024;6.596;2022-08-21T02:21:36;14.90;75.00
52963;DHT22;38827;53.024;6.596;2022-08-21T02:24:08;14.80;75.30
52963;DHT22;38827;53.024;6.596;2022-08-21T02:55:30;14.60;75.80
52963;DHT22;38827;53.024;6.596;2022-08-21T03:01:47;14.60;76.20
52963;DHT22;38827;53.024;6.596;2022-08-21T03:04:30;14.60;76.30
52963;DHT22;38827;53.024;6.596;2022-08-21T03:07:12;14.60;76.50
52963;DHT22;38827;53.024;6.596;2022-08-21T03:09:47;14.50;76.80
52963;DHT22;38827;53.024;6.596;2022-08-21T03:12:44;14.50;77.10
52963;DHT22;38827;53.024;6.596;2022-08-21T03:15:39;14.50;77.20
52963;DHT22;38827;53.024;6.596;2022-08-21T03:21:33;14.50;77.40
52963;DHT22;38827;53.024;6.596;2022-08-21T04:06:08;14.30;77.60
52963;DHT22;38827;53.024;6.596;2022-08-21T04:08:53;14.30;77.80
52963;DHT22;38827;53.024;6.596;2022-08-21T04:33:41;14.40;78.00
52963;DHT22;38827;53.024;6.596;2022-08-21T04:36:35;14.40;78.10
52963;DHT22;38827;53.024;6.596;2022-08-21T05:03:58;14.50;77.80
52963;DHT22;38827;53.024;6.596;2022-08-21T05:07:19;14.50;77.70
52963;DHT22;38827;53.024;6.596;2022-08-21T05:15:04;14.70;77.40
52963;DHT22;38827;53.024;6.596;2022-08-21T05:59:32;15.90;75.00
52963;DHT22;38827;53.024;6.596;2022-08-21T06:01:57;16.10;74.70
52963;DHT22;38827;53.024;6.596;2022-08-21T06:09:11;16.30;74.30
52963;DHT22;38827;53.024;6.596;2022-08-21T06:22:29;16.90;73.30
52963;DHT22;38827;53.024;6.596;2022-08-21T06:43:29;17.80;71.80
52963;DHT22;38827;53.024;6.596;2022-08-21T07:00:17;18.50;69.70
52963;DHT22;38827;53.024;6.596;2022-08-21T07:13:27;19.20;67.40
52963;DHT22;38827;53.024;6.596;2022-08-21T07:20:12;19.50;66.20
52963;DHT22;38827;53.024;6.596;2022-08-21T07:26:37;19.90;64.70
52963;DHT22;38827;53.024;6.596;2022-08-21T08:20:59;24.80;48.60
52963;DHT22;38827;53.024;6.596;2022-08-21T08:23:24;25.40;48.00
52963;DHT22;38827;53.024;6.596;2022-08-21T08:29:59;26.30;46.40
52963;DHT22;38827;53.024;6.596;2022-08-21T08:32:54;26.80;44.60
52963;DHT22;38827;53.024;6.596;2022-08-21T14:49:16;31.60;34.90
52963;DHT22;38827;53.024;6.596;2022-08-21T15:16:13;29.80;36.90
52963;DHT22;38827;53.024;6.596;2022-08-21T15:22:34;28.80;38.90
52963;DHT22;38827;53.024;6.596;2022-08-21T16:05:26;26.10;42.10
52963;DHT22;38827;53.024;6.596;2022-08-21T16:08:10;26.00;42.50
52963;DHT22;38827;53.024;6.596;2022-08-21T16:10:57;26.00;42.30
52963;DHT22;38827;53.024;6.596;2022-08-21T16:44:31;24.50;45.40
52963;DHT22;38827;53.024;6.596;2022-08-21T16:51:51;24.40;45.70
52963;DHT22;38827;53.024;6.596;2022-08-21T16:54:35;24.30;46.20
52963;DHT22;38827;53.024;6.596;2022-08-21T17:04:46;23.90;46.90
52963;DHT22;38827;53.024;6.596;2022-08-21T17:07:13;23.90;47.10
52963;DHT22;38827;53.024;6.596;2022-08-21T17:09:39;23.80;47.50
52963;DHT22;38827;53.024;6.596;2022-08-21T17:12:08;23.80;47.90
52963;DHT22;38827;53.024;6.596;2022-08-21T17:14:34;23.70;48.10
52963;DHT22;38827;53.024;6.596;2022-08-21T17:17:01;23.70;48.20
52963;DHT22;38827;53.024;6.596;2022-08-21T17:19:27;23.70;48.50
52963;DHT22;38827;53.024;6.596;2022-08-21T17:21:53;23.60;48.90
52963;DHT22;38827;53.024;6.596;2022-08-21T17:24:19;23.60;49.00
52963;DHT22;38827;53.024;6.596;2022-08-21T17:26:49;23.50;49.40
52963;DHT22;38827;53.024;6.596;2022-08-21T17:29:26;23.40;49.90
52963;DHT22;38827;53.024;6.596;2022-08-21T17:31:53;23.40;50.20
52963;DHT22;38827;53.024;6.596;2022-08-21T17:34:22;23.20;50.30
52963;DHT22;38827;53.024;6.596;2022-08-21T17:36:48;23.20;50.40
52963;DHT22;38827;53.024;6.596;2022-08-21T17:39:14;23.10;50.50
52963;DHT22;38827;53.024;6.596;2022-08-21T17:41:46;23.10;50.60
52963;DHT22;38827;53.024;6.596;2022-08-21T17:44:31;23.00;51.00
52963;DHT22;38827;53.024;6.596;2022-08-21T17:47:09;23.00;51.20
52963;DHT22;38827;53.024;6.596;2022-08-21T17:49:41;23.00;51.50
52963;DHT22;38827;53.024;6.596;2022-08-21T17:52:07;22.80;51.20
52963;DHT22;38827;53.024;6.596;2022-08-21T17:54:34;22.70;51.30
52963;DHT22;38827;53.024;6.596;2022-08-21T17:57:41;22.60;51.40
52963;DHT22;38827;53.024;6.596;2022-08-21T18:00:43;22.50;51.00
52963;DHT22;38827;53.024;6.596;2022-08-21T18:03:05;22.40;51.30
52963;DHT22;38827;53.024;6.596;2022-08-21T18:06:03;22.30;51.30
52963;DHT22;38827;53.024;6.596;2022-08-21T18:09:06;22.20;51.40
52963;DHT22;38827;53.024;6.596;2022-08-21T18:11:36;22.10;51.40
52963;DHT22;38827;53.024;6.596;2022-08-21T18:14:03;22.10;51.30
52963;DHT22;38827;53.024;6.596;2022-08-21T18:16:32;22.00;51.20
52963;DHT22;38827;53.024;6.596;2022-08-21T18:19:00;22.00;51.50
52963;DHT22;38827;53.024;6.596;2022-08-21T18:21:38;21.90;51.50
52963;DHT22;38827;53.024;6.596;2022-08-21T18:24:04;21.90;51.20
52963;DHT22;38827;53.024;6.596;2022-08-21T18:37:28;21.60;52.10
52963;DHT22;38827;53.024;6.596;2022-08-21T18:50:21;21.50;52.60
52963;DHT22;38827;53.024;6.596;2022-08-21T19:01:42;21.40;53.30
52963;DHT22;38827;53.024;6.596;2022-08-21T19:04:34;21.40;53.30
52963;DHT22;38827;53.024;6.596;2022-08-21T19:07:14;21.40;53.60
52963;DHT22;38827;53.024;6.596;2022-08-21T19:09:42;21.40;53.80
52963;DHT22;38827;53.024;6.596;2022-08-21T19:12:15;21.30;54.40
52963;DHT22;38827;53.024;6.596;2022-08-21T19:14:42;21.30;54.30
52963;DHT22;38827;53.024;6.596;2022-08-21T19:23:36;21.20;54.90
52963;DHT22;38827;53.024;6.596;2022-08-21T19:26:17;21.10;55.00
52963;DHT22;38827;53.024;6.596;2022-08-21T19:29:11;21.10;55.10
52963;DHT22;38827;53.024;6.596;2022-08-21T19:31:59;21.00;55.30
52963;DHT22;38827;53.024;6.596;2022-08-21T19:37:32;20.70;55.40
52963;DHT22;38827;53.024;6.596;2022-08-21T19:39:58;20.60;56.10
52963;DHT22;38827;53.024;6.596;2022-08-21T19:42:39;20.60;56.30
52963;DHT22;38827;53.024;6.596;2022-08-21T19:45:24;20.50;56.20
52963;DHT22;38827;53.024;6.596;2022-08-21T19:48:02;20.40;56.30
52963;DHT22;38827;53.024;6.596;2022-08-21T19:50:31;20.40;56.60
52963;DHT22;38827;53.024;6.596;2022-08-21T19:53:14;20.30;57.00
52963;DHT22;38827;53.024;6.596;2022-08-21T19:55:55;20.20;57.10
52963;DHT22;38827;53.024;6.596;2022-08-21T19:58:41;20.20;56.80
52963;DHT22;38827;53.024;6.596;2022-08-21T20:01:20;20.10;56.90
52963;DHT22;38827;53.024;6.596;2022-08-21T20:03:56;20.10;57.40
52963;DHT22;38827;53.024;6.596;2022-08-21T20:07:01;20.10;57.40
52963;DHT22;38827;53.024;6.596;2022-08-21T20:09:34;20.10;57.20
52963;DHT22;38827;53.024;6.596;2022-08-21T20:12:04;20.00;57.70
52963;DHT22;38827;53.024;6.596;2022-08-21T20:14:45;20.00;57.90
52963;DHT22;38827;53.024;6.596;2022-08-21T20:17:38;19.90;58.00
52963;DHT22;38827;53.024;6.596;2022-08-21T20:20:16;19.90;58.20
52963;DHT22;38827;53.024;6.596;2022-08-21T20:22:42;19.90;58.10
52963;DHT22;38827;53.024;6.596;2022-08-21T20:25:08;19.90;58.50
52963;DHT22;38827;53.024;6.596;2022-08-21T20:27:43;19.90;58.80
52963;DHT22;38827;53.024;6.596;2022-08-21T20:30:10;19.80;58.90
52963;DHT22;38827;53.024;6.596;2022-08-21T20:32:39;19.80;59.30
52963;DHT22;38827;53.024;6.596;2022-08-21T20:35:07;19.70;59.50
52963;DHT22;38827;53.024;6.596;2022-08-21T20:37:33;19.70;59.70
52963;DHT22;38827;53.024;6.596;2022-08-21T20:40:12;19.60;59.90
52963;DHT22;38827;53.024;6.596;2022-08-21T20:42:52;19.60;59.70
52963;DHT22;38827;53.024;6.596;2022-08-21T20:46:12;19.50;60.10
52963;DHT22;38827;53.024;6.596;2022-08-21T20:48:39;19.50;59.90
52963;DHT22;38827;53.024;6.596;2022-08-21T20:51:44;19.40;60.50
52963;DHT22;38827;53.024;6.596;2022-08-21T20:54:24;19.40;60.40
52963;DHT22;38827;53.024;6.596;2022-08-21T20:57:32;19.40;60.70
52963;DHT22;38827;53.024;6.596;2022-08-21T21:00:16;19.40;60.60
52963;DHT22;38827;53.024;6.596;2022-08-21T21:03:11;19.30;60.90
52963;DHT22;38827;53.024;6.596;2022-08-21T21:09:13;19.30;61.40
52963;DHT22;38827;53.024;6.596;2022-08-21T21:11:48;19.20;62.10
52963;DHT22;38827;53.024;6.596;2022-08-21T21:14:46;19.20;62.40
52963;DHT22;38827;53.024;6.596;2022-08-21T21:17:41;19.20;62.80
52963;DHT22;38827;53.024;6.596;2022-08-21T21:23:48;19.20;62.80
52963;DHT22;38827;53.024;6.596;2022-08-21T21:26:48;19.10;63.00
52963;DHT22;38827;53.024;6.596;2022-08-21T21:29:39;19.00;62.80
52963;DHT22;38827;53.024;6.596;2022-08-21T21:32:06;19.00;62.90
52963;DHT22;38827;53.024;6.596;2022-08-21T21:34:45;19.00;63.10
52963;DHT22;38827;53.024;6.596;2022-08-21T21:37:42;19.10;63.00
52963;DHT22;38827;53.024;6.596;2022-08-21T21:56:59;18.90;64.30
52963;DHT22;38827;53.024;6.596;2022-08-21T22:02:53;18.80;65.40
52963;DHT22;38827;53.024;6.596;2022-08-21T22:14:12;18.60;66.30
52963;DHT22;38827;53.024;6.596;2022-08-21T22:16:40;18.60;66.70
52963;DHT22;38827;53.024;6.596;2022-08-21T22:19:25;18.50;66.80
52963;DHT22;38827;53.024;6.596;2022-08-21T22:21:59;18.50;66.70
52963;DHT22;38827;53.024;6.596;2022-08-21T22:24:30;18.50;66.90
52963;DHT22;38827;53.024;6.596;2022-08-21T22:27:02;18.50;67.10
52963;DHT22;38827;53.024;6.596;2022-08-21T22:29:43;18.50;67.30
52963;DHT22;38827;53.024;6.596;2022-08-21T22:35:19;18.40;67.20
52963;DHT22;38827;53.024;6.596;2022-08-21T22:37:54;18.40;67.10
52963;DHT22;38827;53.024;6.596;2022-08-21T22:40:34;18.30;67.20
52963;DHT22;38827;53.024;6.596;2022-08-21T22:43:04;18.30;67.60
52963;DHT22;38827;53.024;6.596;2022-08-21T22:45:35;18.20;67.70
52963;DHT22;38827;53.024;6.596;2022-08-21T22:48:20;18.20;67.80
52963;DHT22;38827;53.024;6.596;2022-08-21T22:51:54;18.20;68.00
52963;DHT22;38827;53.024;6.596;2022-08-21T22:53:52;18.20;68.10
52963;DHT22;38827;53.024;6.596;2022-08-21T22:56:36;18.10;68.20
52963;DHT22;38827;53.024;6.596;2022-08-21T22:59:25;18.10;68.00
52963;DHT22;38827;53.024;6.596;2022-08-21T23:02:08;18.10;68.30
52963;DHT22;38827;53.024;6.596;2022-08-21T23:04:44;18.10;68.40
52963;DHT22;38827;53.024;6.596;2022-08-21T23:07:38;18.00;68.50
52963;DHT22;38827;53.024;6.596;2022-08-21T23:10:19;18.00;68.40
52963;DHT22;38827;53.024;6.596;2022-08-21T23:12:57;17.90;68.90
52963;DHT22;38827;53.024;6.596;2022-08-21T23:15:29;17.90;68.80
52963;DHT22;38827;53.024;6.596;2022-08-21T23:23:23;17.80;69.00
52963;DHT22;38827;53.024;6.596;2022-08-21T23:29:04;17.80;69.30
52963;DHT22;38827;53.024;6.596;2022-08-21T23:49:19;17.60;70.50
52963;DHT22;38827;53.024;6.596;2022-08-21T23:52:11;17.60;70.80
52963;DHT22;38827;53.024;6.596;2022-08-21T23:57:52;17.50;70.50
